• Join FlightAware (Why Join?)
  • Login
  • US Flag 
04:50AM EDT


 

Airport Tracker/Info


-or-


 

Live Flight TrackerFlight Track Log ✈ N556VP ✈ 19-Jul-2013 ✈ KSGR - KDZB

Flight Track Log - Related Links

Times and Time Zones

All times are in EDT time to prevent confusion due to time zone crossing. See the N556VP flight status page for this flight to view local times or setup timezone preferences in your user account.

Time Position Orientation Groundspeed Altitude Reporting Facility
EDT Latitude Longitude Course Direction KTS MPH feet Rate Location/Type
04:15PM 29.5933 -95.6569 188° South 204 235 1,200  Level Houston Center
04:16PM 29.5311 -95.6667 188° South 236 272 3,100 1,800 Climbing Houston Center
04:17PM 29.5236 -95.7003 256° West 240 276 4,300 1,080 Climbing Houston Center
04:18PM 29.5858 -95.7761 313° West 273 314 5,000 360 Climbing Houston Center
04:19PM 29.6369 -95.8369 314° West 270 311 5,100 1,320 Climbing Houston Center
04:20PM 29.6839 -95.8961 312° West 255 293 7,800 2,400 Climbing Houston Center
04:21PM 29.7239 -95.9506 310° West 234 269 10,100 1,020 Climbing Houston Center
04:22PM 29.7633 -96.0569 293° West 324 373 10,000 1,440 Descending Houston Center
04:23PM 29.7922 -96.1422 291° West 290 334 13,100 2,160 Climbing Houston Center
04:24PM 29.7900 -96.2386 269° West 313 360 14,500 1,500 Climbing Houston Center
04:25PM 29.7708 -96.3467 258° West 340 391 16,200 1,740 Climbing Houston Center
04:26PM 29.7531 -96.4558 259° West 348 400 18,200 1,380 Climbing Houston Center
04:27PM 29.7347 -96.5667 259° West 353 406 19,100 840 Climbing Houston Center
04:28PM 29.7489 -96.7089 277° West 382 440 20,000 420 Climbing Houston Center
04:29PM 29.7928 -96.8236 294° West 393 452 20,000  Level Houston Center
04:30PM 29.8392 -96.9328 296° West 385 443 20,000 -120 Level Houston Center
04:31PM 29.8925 -97.0356 301° West 376 433 19,800 -540 Descending Houston Center
04:32PM 29.9433 -97.1442 298° West 386 444 18,900 -960 Descending Houston Center
04:33PM 30.0075 -97.2728 300° West 386 444 17,800 -960 Descending Houston Center
04:34PM 30.0589 -97.3775 300° West 379 436 17,000 -900 Descending Houston Center
04:35PM 30.1111 -97.4886 299° West 366 421 16,000 -1,020 Descending Houston Center
04:36PM 30.1603 -97.5911 299° West 362 417 15,000 -1,080 Descending Houston Center
04:37PM 30.2108 -97.6933 300° West 362 417 13,800 -1,380 Descending Houston Center
04:38PM 30.2572 -97.7917 299° West 348 400 12,200 -1,680 Descending Houston Center
04:39PM 30.3067 -97.8958 299° West 330 380 10,400 -1,740 Descending Houston Center
04:40PM 30.3444 -97.9736 299° West 319 367 8,700 -1,620 Descending Houston Center
04:42PM 30.3817 -98.0506 299° West 287 330 7,100 -1,560 Descending Houston Center